Time;durP1;ratioP1;P1;durP2;ratioP2;P2;SDS_P1;SDS_P2;PMS_P1;PMS_P2;Temp;Humidity;BMP_temperature;BMP_pressure;BME280_temperature;BME280_humidity;BME280_pressure;Samples;Min_cycle;Max_cycle;Signal;HPM_P1;HPM_P2
2022/05/02 00:01:59;;;;;;;5.50;3.53;;;;;;;20.54;35.66;102048.38;5092660;28;20418;-59
2022/05/02 00:04:24;;;;;;;5.30;3.60;;;;;;;20.53;35.56;102044.84;5093582;28;20265;-59
2022/05/02 00:06:49;;;;;;;5.63;3.85;;;;;;;20.52;35.35;102040.53;5093444;28;20371;-59
2022/05/02 00:09:17;;;;;;;6.20;3.93;;;;;;;20.50;35.76;102042.44;5092981;28;20024;-59
2022/05/02 00:11:43;;;;;;;5.00;3.50;;;;;;;20.47;35.42;102038.22;5093452;28;20276;-59
2022/05/02 00:14:11;;;;;;;5.70;3.73;;;;;;;20.47;35.54;102040.88;5093215;28;20046;-59
2022/05/02 00:16:36;;;;;;;5.25;3.47;;;;;;;20.46;35.59;102038.34;5092729;28;20063;-60
2022/05/02 00:19:02;;;;;;;6.00;3.50;;;;;;;20.45;35.55;102042.75;5093201;28;20054;-59
2022/05/02 00:21:28;;;;;;;5.13;3.40;;;;;;;20.44;35.52;102037.56;5093533;28;20020;-60
2022/05/02 00:23:53;;;;;;;5.35;3.90;;;;;;;20.44;35.39;102034.94;5092535;28;20529;-60
2022/05/02 00:26:18;;;;;;;5.23;4.07;;;;;;;20.42;35.62;102032.38;5093398;28;20418;-59
2022/05/02 00:28:43;;;;;;;6.27;3.83;;;;;;;20.43;35.36;102027.97;5093311;28;20352;-59
2022/05/02 00:31:09;;;;;;;5.45;3.38;;;;;;;20.39;35.42;102029.97;5092122;28;20099;-60
2022/05/02 00:33:34;;;;;;;7.18;3.65;;;;;;;20.39;35.49;102029.97;5093178;28;20451;-59
2022/05/02 00:36:03;;;;;;;5.70;3.67;;;;;;;20.39;35.62;102026.47;5093077;28;20023;-59
2022/05/02 00:38:28;;;;;;;5.78;4.05;;;;;;;20.37;35.38;102025.75;5092407;28;20279;-60
2022/05/02 00:40:55;;;;;;;5.00;3.80;;;;;;;20.36;35.43;102022.28;5092959;28;20024;-60
2022/05/02 00:43:29;;;;;;;5.30;3.60;;;;;;;20.35;35.44;102019.72;5093074;28;20031;-60
2022/05/02 00:45:56;;;;;;;6.72;3.70;;;;;;;20.33;35.41;102018.97;5090888;28;20365;-59
2022/05/02 00:48:21;;;;;;;5.32;3.58;;;;;;;20.32;35.27;102014.66;5093258;28;20169;-59
2022/05/02 00:50:47;;;;;;;5.90;3.65;;;;;;;20.31;35.39;102016.44;5092348;28;20480;-60
2022/05/02 00:53:19;;;;;;;5.30;3.30;;;;;;;20.29;35.16;102013.91;5092828;28;20056;-60
2022/05/02 00:55:45;;;;;;;5.55;3.75;;;;;;;20.29;35.32;102013.06;5092914;28;20028;-60
2022/05/02 00:58:14;;;;;;;5.65;3.90;;;;;;;20.27;35.34;102010.53;5091856;28;20020;-60
2022/05/02 01:00:43;;;;;;;5.38;3.63;;;;;;;20.25;35.43;102015.09;5092765;28;20439;-60
2022/05/02 01:03:11;;;;;;;5.82;3.67;;;;;;;20.25;35.21;102015.09;5092704;28;20031;-60
2022/05/02 01:08:26;;;;;;;7.50;3.80;;;;;;;20.23;35.35;102010.84;5071328;28;20056;-60
2022/05/02 01:10:52;;;;;;;5.30;3.65;;;;;;;20.21;35.26;102013.63;5092439;28;20533;-60
2022/05/02 01:13:50;;;;;;;5.22;3.85;;;;;;;20.20;35.27;102014.59;5091858;28;20048;-60
2022/05/02 01:16:20;;;;;;;5.00;3.40;;;;;;;20.19;35.25;102007.59;5058328;28;20434;-60
2022/05/02 01:18:48;;;;;;;5.50;3.88;;;;;;;20.19;35.27;102009.41;5092773;28;20111;-59
2022/05/02 01:21:14;;;;;;;5.90;3.67;;;;;;;20.18;34.96;102005.91;5092020;28;20028;-60
2022/05/02 01:23:42;;;;;;;5.57;3.70;;;;;;;20.16;35.29;102005.16;5092578;28;20047;-59
2022/05/02 01:26:07;;;;;;;5.13;3.50;;;;;;;20.15;35.36;102000.81;5091815;28;20031;-59
2022/05/02 01:28:48;;;;;;;5.05;3.20;;;;;;;20.15;35.21;102000.81;5092685;28;20107;-59
2022/05/02 01:31:17;;;;;;;5.20;3.67;;;;;;;20.15;35.36;101997.34;5091121;28;20069;-59
2022/05/02 01:33:42;;;;;;;5.45;3.63;;;;;;;20.13;35.29;102005.38;5091724;28;20020;-59
2022/05/02 01:36:08;;;;;;;4.90;3.67;;;;;;;20.11;35.20;102000.19;5092374;28;20472;-59
2022/05/02 01:38:35;;;;;;;5.70;3.40;;;;;;;20.11;35.15;102002.84;5092384;28;20078;-59
2022/05/02 01:41:01;;;;;;;5.40;3.45;;;;;;;20.11;35.16;102004.66;5091488;28;20410;-60
2022/05/02 01:43:29;;;;;;;6.60;3.53;;;;;;;20.10;35.06;101998.50;5092616;28;20068;-59
2022/05/02 01:45:54;;;;;;;6.13;3.40;;;;;;;20.09;35.12;101996.81;5092207;28;20024;-59
2022/05/02 01:48:19;;;;;;;5.00;3.40;;;;;;;20.09;35.18;101998.59;5091885;28;20036;-60
2022/05/02 01:50:45;;;;;;;4.53;3.33;;;;;;;20.06;35.20;101994.41;5092475;28;20291;-59
2022/05/02 01:53:10;;;;;;;5.10;3.17;;;;;;;20.05;35.13;101990.06;5092402;28;20020;-59
2022/05/02 01:55:35;;;;;;;4.90;3.35;;;;;;;20.05;35.10;101999.81;5091657;28;20028;-58
2022/05/02 01:58:01;;;;;;;4.50;3.50;;;;;;;20.04;35.15;101995.44;5094179;28;20119;-58
2022/05/02 02:00:26;;;;;;;4.72;3.58;;;;;;;20.03;35.20;101991.13;5096063;28;20028;-59
2022/05/02 02:02:51;;;;;;;4.80;3.40;;;;;;;20.02;35.16;101989.44;5094987;28;20027;-59
2022/05/02 02:08:00;;;;;;;5.47;3.53;;;;;;;19.99;35.20;101987.00;5096002;28;20309;-59
2022/05/02 02:10:26;;;;;;;5.38;3.50;;;;;;;19.98;35.16;101978.22;5095084;28;20024;-59
2022/05/02 02:12:51;;;;;;;5.00;3.42;;;;;;;19.99;35.01;101981.72;5095271;28;20048;-59
2022/05/02 02:15:16;;;;;;;4.70;3.40;;;;;;;19.97;35.11;101986.28;5095060;28;20039;-59
2022/05/02 02:17:48;;;;;;;5.23;3.77;;;;;;;19.96;35.10;101981.94;5095592;28;20028;-60
2022/05/02 02:20:16;;;;;;;5.22;3.80;;;;;;;19.94;35.03;101988.16;5095778;28;20361;-59
2022/05/02 02:22:41;;;;;;;5.78;3.63;;;;;;;19.94;35.05;101988.16;5094738;28;20527;-60
2022/05/02 02:25:10;;;;;;;5.15;3.50;;;;;;;19.92;35.27;101987.44;5095258;28;20114;-59
2022/05/02 02:27:35;;;;;;;4.68;3.58;;;;;;;19.92;35.10;101984.78;5095503;28;20020;-59
2022/05/02 02:30:00;;;;;;;4.60;3.25;;;;;;;19.92;35.01;101986.59;5094352;28;20422;-58
2022/05/02 02:32:27;;;;;;;4.85;3.28;;;;;;;19.91;35.06;101987.53;5095549;28;20028;-59
2022/05/02 02:34:52;;;;;;;5.55;3.50;;;;;;;19.90;35.00;101986.72;5095215;28;20020;-59
2022/05/02 02:37:17;;;;;;;5.43;3.63;;;;;;;19.89;34.94;101984.16;5094686;28;20123;-59
2022/05/02 02:39:44;;;;;;;5.30;3.75;;;;;;;19.87;35.06;101981.63;5095295;28;20020;-59
2022/05/02 02:42:10;;;;;;;4.63;3.33;;;;;;;19.86;35.21;101973.81;5094987;28;20034;-59
2022/05/02 02:44:35;;;;;;;5.30;3.42;;;;;;;19.86;35.21;101979.94;5094383;28;20016;-59
2022/05/02 02:47:01;;;;;;;5.53;3.47;;;;;;;19.85;35.03;101972.09;5094644;28;20032;-59
2022/05/02 02:49:29;;;;;;;5.47;3.35;;;;;;;19.85;35.12;101974.75;5095320;28;20020;-59
2022/05/02 02:51:55;;;;;;;5.70;3.58;;;;;;;19.83;34.96;101969.56;5094003;28;20467;-59
2022/05/02 02:54:20;;;;;;;5.07;3.42;;;;;;;19.83;34.95;101972.22;5095217;28;20031;-59
2022/05/02 02:56:46;;;;;;;6.10;3.70;;;;;;;19.82;35.05;101967.91;5094942;28;20429;-60
2022/05/02 02:59:11;;;;;;;5.47;3.40;;;;;;;19.81;34.90;101960.91;5093801;28;20031;-59
2022/05/02 03:01:37;;;;;;;5.38;3.40;;;;;;;19.81;35.04;101965.34;5094753;28;20039;-59
2022/05/02 03:06:01;;;;;;;4.97;3.47;;;;;;;19.80;34.97;101963.66;5094689;28;20024;-59
2022/05/02 03:06:48;;;;;;;5.38;3.30;;;;;;;19.78;34.98;101955.81;5094462;28;20028;-59
2022/05/02 03:09:14;;;;;;;5.40;3.47;;;;;;;19.77;35.04;101954.13;5093786;28;20016;-59
2022/05/02 03:11:39;;;;;;;5.27;3.67;;;;;;;19.75;34.97;101956.84;5093643;28;20040;-59
2022/05/02 03:14:04;;;;;;;5.07;3.50;;;;;;;19.75;34.86;101962.13;5094209;28;20282;-59
2022/05/02 03:16:29;;;;;;;4.73;3.37;;;;;;;19.74;34.87;101955.19;5094678;28;20510;-60
2022/05/02 03:18:55;;;;;;;5.90;3.80;;;;;;;19.74;34.97;101956.94;5093622;28;20305;-60
2022/05/02 03:21:20;;;;;;;4.93;3.43;;;;;;;19.73;34.88;101952.63;5094774;28;20054;-61
2022/05/02 03:23:45;;;;;;;5.10;3.20;;;;;;;19.72;34.93;101950.94;5094885;28;20276;-60
2022/05/02 03:26:10;;;;;;;5.27;3.50;;;;;;;19.71;34.82;101952.75;5093491;28;20079;-60
2022/05/02 03:28:36;;;;;;;5.33;3.53;;;;;;;19.70;34.96;101955.50;5094410;28;20772;-60
2022/05/02 03:31:01;;;;;;;6.17;3.50;;;;;;;19.70;34.87;101951.03;5094324;28;20334;-60
2022/05/02 03:33:26;;;;;;;5.22;3.60;;;;;;;19.71;34.86;101951.88;5093693;28;20298;-60
2022/05/02 03:35:57;;;;;;;7.38;3.50;;;;;;;19.70;34.67;101952.84;5093933;28;20024;-59
2022/05/02 03:38:22;;;;;;;4.80;3.33;;;;;;;19.68;34.54;101949.47;5094101;28;20459;-59
2022/05/02 03:40:47;;;;;;;4.67;3.10;;;;;;;19.67;34.69;101950.41;5093678;28;20031;-59
2022/05/02 03:43:12;;;;;;;5.70;3.40;;;;;;;19.68;34.68;101950.31;5093775;28;20752;-59
2022/05/02 03:45:38;;;;;;;4.80;3.30;;;;;;;19.67;34.82;101945.97;5094318;28;20032;-60
2022/05/02 03:48:04;;;;;;;5.03;3.00;;;;;;;19.64;34.71;101943.53;5093002;28;20032;-60
2022/05/02 03:50:29;;;;;;;4.50;3.00;;;;;;;19.63;34.60;101949.81;5093905;28;20197;-59
2022/05/02 03:52:55;;;;;;;5.30;3.20;;;;;;;19.63;34.64;101948.94;5093681;28;20133;-59
2022/05/02 03:55:20;;;;;;;5.13;3.40;;;;;;;19.62;34.62;101949.91;5093009;28;20107;-59
2022/05/02 03:57:45;;;;;;;5.65;3.28;;;;;;;19.60;34.51;101950.00;5093803;28;20016;-59
2022/05/02 04:00:11;;;;;;;4.70;3.20;;;;;;;19.60;34.65;101947.38;5093669;28;20103;-59
2022/05/02 04:02:36;;;;;;;5.95;3.38;;;;;;;19.60;34.67;101951.78;5093075;28;20268;-59
2022/05/02 04:05:02;;;;;;;5.27;3.27;;;;;;;19.58;34.61;101950.13;5093451;28;20024;-59
2022/05/02 04:07:27;;;;;;;4.63;3.10;;;;;;;19.57;34.69;101947.59;5093780;28;20275;-59
2022/05/02 04:09:52;;;;;;;4.50;2.90;;;;;;;19.56;34.72;101952.00;5092586;28;20035;-59
2022/05/02 04:12:17;;;;;;;4.57;2.97;;;;;;;19.56;34.71;101948.53;5093476;28;20434;-60
2022/05/02 04:14:43;;;;;;;4.40;3.07;;;;;;;19.55;34.45;101950.34;5092957;28;20813;-60
2022/05/02 04:17:09;;;;;;;5.03;3.20;;;;;;;19.56;34.50;101956.47;5093294;28;20289;-60
2022/05/02 04:19:34;;;;;;;5.22;3.00;;;;;;;19.55;34.70;101949.47;5093449;28;20035;-59
2022/05/02 04:22:00;;;;;;;4.75;3.20;;;;;;;19.55;34.65;101946.81;5092436;28;20028;-60
2022/05/02 04:24:25;;;;;;;4.87;3.07;;;;;;;19.53;34.74;101948.75;5093421;28;20440;-60
2022/05/02 04:26:50;;;;;;;4.40;3.13;;;;;;;19.53;34.16;101954.03;5093122;28;20303;-59
2022/05/02 04:29:15;;;;;;;4.60;3.00;;;;;;;19.51;34.56;101948.84;5092737;28;20317;-59
2022/05/02 04:31:41;;;;;;;4.88;3.28;;;;;;;19.51;34.51;101951.47;5093605;28;20074;-60
2022/05/02 04:34:06;;;;;;;5.68;3.08;;;;;;;19.50;34.47;101952.47;5093249;28;20090;-59
2022/05/02 04:36:31;;;;;;;4.65;3.10;;;;;;;19.51;34.59;101950.66;5092380;28;20468;-59
2022/05/02 04:38:56;;;;;;;5.67;3.00;;;;;;;19.50;34.51;101952.47;5092976;28;20028;-59
2022/05/02 04:41:21;;;;;;;5.97;3.10;;;;;;;19.51;34.77;101948.84;5092937;28;20683;-59
2022/05/02 04:43:51;;;;;;;4.60;3.30;;;;;;;19.53;34.75;101946.94;5092541;28;20379;-59
2022/05/02 04:46:18;;;;;;;4.50;2.90;;;;;;;19.56;34.82;101940.59;5093243;28;20338;-59
2022/05/02 04:48:43;;;;;;;4.70;2.67;;;;;;;19.60;34.80;101943.84;5092995;28;20429;-59
2022/05/02 04:51:11;;;;;;;4.73;2.87;;;;;;;19.65;34.75;101952.34;5092065;28;20024;-59
2022/05/02 04:53:36;;;;;;;5.55;3.22;;;;;;;19.69;34.56;101952.03;5092921;28;20043;-59
2022/05/02 04:56:07;;;;;;;4.88;3.20;;;;;;;19.72;34.52;101950.94;5092617;28;20039;-60
2022/05/02 04:58:33;;;;;;;4.68;3.05;;;;;;;19.76;34.26;101960.38;5092395;28;20103;-60
2022/05/02 05:01:04;;;;;;;4.90;3.00;;;;;;;19.77;34.56;101948.84;5092557;28;20063;-60
2022/05/02 05:03:30;;;;;;;4.50;2.92;;;;;;;19.80;34.23;101956.56;5092982;28;20035;-59
2022/05/02 05:05:58;;;;;;;4.75;3.45;;;;;;;19.80;34.28;101961.84;5091836;28;20027;-59
2022/05/02 05:08:23;;;;;;;4.72;3.03;;;;;;;19.82;34.27;101959.97;5092766;28;20016;-59
2022/05/02 05:11:19;;;;;;;4.97;3.07;;;;;;;19.84;34.10;101958.03;5092518;28;20035;-59
2022/05/02 05:16:20;;;;;;;5.53;3.15;;;;;;;19.85;34.20;101953.59;5092608;28;20760;-59
2022/05/02 05:16:56;;;;;;;4.53;3.17;;;;;;;19.86;34.45;101958.75;5092708;28;20468;-60
2022/05/02 05:19:38;;;;;;;5.15;3.28;;;;;;;19.87;34.32;101960.47;5092232;28;20028;-59
2022/05/02 05:22:21;;;;;;;5.75;3.00;;;;;;;19.87;34.52;101964.94;5092400;28;20107;-60
2022/05/02 05:25:09;;;;;;;4.22;2.72;;;;;;;19.87;35.20;101955.19;5092795;28;20384;-59
2022/05/02 05:28:04;;;;;;;4.82;2.80;;;;;;;19.87;35.71;101959.63;5092868;28;20113;-59
2022/05/02 05:30:38;;;;;;;4.90;2.80;;;;;;;19.88;35.65;101959.50;5092822;28;20028;-59
2022/05/02 05:33:15;;;;;;;5.07;3.00;;;;;;;19.89;35.62;101955.06;5094439;28;20095;-59
2022/05/02 05:35:58;;;;;;;6.35;2.63;;;;;;;19.92;35.69;101957.50;5096312;28;20104;-59
2022/05/02 05:38:39;;;;;;;4.03;2.57;;;;;;;19.93;35.90;101951.22;5096521;28;20020;-59
2022/05/02 05:41:20;;;;;;;4.05;2.40;;;;;;;19.96;35.78;101956.31;5095539;28;20020;-59
2022/05/02 05:44:14;;;;;;;4.50;2.78;;;;;;;20.02;35.60;101957.69;5096440;28;20066;-59
2022/05/02 05:47:06;;;;;;;4.43;2.80;;;;;;;20.07;35.46;101959.03;5095523;28;20035;-59
2022/05/02 05:49:34;;;;;;;6.07;2.83;;;;;;;20.13;35.70;101959.56;5096340;28;20264;-59
2022/05/02 05:52:22;;;;;;;4.47;2.83;;;;;;;20.15;35.54;101960.28;5095787;28;20123;-59
2022/05/02 05:55:06;;;;;;;4.45;2.75;;;;;;;20.17;35.60;101967.16;5095611;28;20088;-59
2022/05/02 05:57:53;;;;;;;5.15;2.75;;;;;;;20.21;35.52;101965.13;5096176;28;20059;-59
2022/05/02 06:00:18;;;;;;;4.20;2.50;;;;;;;20.19;35.47;101959.97;5095092;28;20490;-59
2022/05/02 06:03:13;;;;;;;4.55;2.80;;;;;;;20.19;35.44;101970.53;5095909;28;20028;-60
2022/05/02 06:05:40;;;;;;;4.73;2.50;;;;;;;20.18;35.53;101968.00;5096045;28;20053;-60
2022/05/02 06:08:09;;;;;;;6.13;3.05;;;;;;;20.18;35.52;101965.34;5094714;28;20672;-60
2022/05/02 06:10:37;;;;;;;4.03;2.45;;;;;;;20.18;35.67;101968.84;5095919;28;20040;-60
2022/05/02 06:13:03;;;;;;;4.53;3.08;;;;;;;20.22;35.72;101972.09;5095186;28;20116;-60
2022/05/02 06:18:29;;;;;;;4.40;2.90;;;;;;;20.19;35.37;101970.53;5095651;28;20495;-61
2022/05/02 06:21:06;;;;;;;4.82;2.92;;;;;;;20.16;35.69;101972.56;5095443;28;20066;-59
2022/05/02 06:23:35;;;;;;;3.95;2.60;;;;;;;20.13;35.81;101973.63;5094765;28;20029;-61
2022/05/02 06:26:02;;;;;;;4.90;2.40;;;;;;;20.12;36.08;101969.28;5095508;28;20065;-60
2022/05/02 06:28:33;;;;;;;4.10;2.60;;;;;;;20.10;36.05;101977.31;5094149;28;20040;-60
2022/05/02 06:31:00;;;;;;;4.40;2.67;;;;;;;20.10;36.18;101969.38;5095521;28;20071;-60
2022/05/02 06:33:25;;;;;;;4.97;2.75;;;;;;;20.10;36.45;101964.09;5095530;28;20028;-59
2022/05/02 06:36:06;;;;;;;4.30;2.78;;;;;;;20.13;36.44;101960.41;5094286;28;20349;-59
2022/05/02 06:39:02;;;;;;;4.82;2.75;;;;;;;20.14;36.53;101969.16;5095811;28;20031;-59
2022/05/02 06:41:57;;;;;;;4.05;2.38;;;;;;;20.15;36.63;101969.06;5095513;28;20032;-59
2022/05/02 06:45:03;;;;;;;3.92;2.35;;;;;;;20.18;36.54;101975.94;5094278;28;20020;-59
2022/05/02 06:47:47;;;;;;;4.68;2.60;;;;;;;20.20;36.38;101968.72;5095246;28;20043;-59
2022/05/02 06:50:17;;;;;;;4.90;2.65;;;;;;;20.23;36.58;101971.16;5094042;28;20107;-60
2022/05/02 06:53:09;;;;;;;4.75;2.50;;;;;;;20.25;36.49;101971.88;5094903;28;20483;-61
2022/05/02 06:55:46;;;;;;;6.30;3.10;;;;;;;20.31;36.48;101979.38;5095223;28;20032;-59
2022/05/02 06:58:36;;;;;;;4.43;2.42;;;;;;;20.44;36.54;101972.25;5094733;28;20027;-59
2022/05/02 07:01:11;;;;;;;5.18;2.60;;;;;;;20.52;36.05;101971.69;5094130;28;20081;-60
2022/05/02 07:03:52;;;;;;;6.60;2.80;;;;;;;20.65;35.86;101972.50;5094877;28;20023;-59
2022/05/02 07:06:45;;;;;;;4.03;2.35;;;;;;;20.78;35.86;101972.41;5095023;28;20024;-61
2022/05/02 07:09:22;;;;;;;4.63;2.60;;;;;;;20.89;35.71;101971.63;5094383;28;20027;-61
2022/05/02 07:12:13;;;;;;;4.32;2.47;;;;;;;21.02;35.31;101968.88;5093942;28;20104;-60
2022/05/02 07:15:21;;;;;;;4.20;2.53;;;;;;;21.14;35.24;101970.59;5094625;28;20464;-60
2022/05/02 07:18:00;;;;;;;6.25;2.67;;;;;;;21.23;35.13;101969.03;5093881;28;20134;-60
2022/05/02 07:20:25;;;;;;;5.57;2.63;;;;;;;21.28;35.11;101972.16;5094721;28;20016;-60
2022/05/02 07:23:15;;;;;;;4.77;2.50;;;;;;;21.34;35.01;101974.34;5094489;28;20486;-60
2022/05/02 07:25:47;;;;;;;4.38;2.47;;;;;;;21.41;35.06;101976.53;5093594;28;20107;-60
2022/05/02 07:28:40;;;;;;;4.95;2.83;;;;;;;21.45;34.83;101973.53;5094216;28;20024;-60
2022/05/02 07:31:08;;;;;;;5.57;2.90;;;;;;;21.49;34.74;101974.16;5094069;28;20491;-61
2022/05/02 07:33:38;;;;;;;5.40;2.63;;;;;;;21.49;34.84;101969.72;5093726;28;20048;-60
2022/05/02 07:36:04;;;;;;;4.90;2.80;;;;;;;21.51;35.07;101972.25;5093914;28;20024;-61
2022/05/02 07:38:32;;;;;;;5.70;2.85;;;;;;;21.50;35.17;101967.91;5094200;28;20032;-60
2022/05/02 07:43:44;;;;;;;4.65;2.50;;;;;;;21.49;35.02;101960.88;5094030;28;20027;-62
2022/05/02 07:46:11;;;;;;;4.35;2.50;;;;;;;21.48;34.64;101968.00;5092962;28;20031;-61
2022/05/02 07:48:39;;;;;;;4.95;2.40;;;;;;;21.48;34.72;101964.50;5094080;28;20471;-61
2022/05/02 07:51:09;;;;;;;4.05;2.30;;;;;;;21.47;35.08;101968.94;5093701;28;20024;-61
2022/05/02 07:53:39;;;;;;;4.05;2.20;;;;;;;21.46;35.05;101975.22;5093457;28;20024;-61
2022/05/02 07:56:09;;;;;;;5.20;2.50;;;;;;;21.46;34.83;101969.91;5093252;28;20077;-61
2022/05/02 07:58:44;;;;;;;4.05;2.40;;;;;;;21.48;34.90;101969.81;5093778;28;20468;-61
2022/05/02 08:01:09;;;;;;;;;;;;;;;21.45;34.91;101970.88;5093205;28;20368;-63
2022/05/02 08:03:34;;;;;;;4.47;2.03;;;;;;;21.44;35.10;101971.81;5093245;28;20085;-63
2022/05/02 08:06:16;;;;;;;6.65;2.45;;;;;;;21.43;35.12;101969.28;5093652;28;20047;-61
2022/05/02 08:09:13;;;;;;;5.13;2.30;;;;;;;21.44;35.11;101971.00;5093077;28;20043;-61
2022/05/02 08:12:02;;;;;;;3.88;2.20;;;;;;;21.44;35.04;101973.66;5093324;28;20384;-60
2022/05/02 08:14:53;;;;;;;6.30;2.30;;;;;;;21.49;35.10;101961.75;5093804;28;20047;-66
2022/05/02 08:17:57;;;;;;;6.45;2.42;;;;;;;21.54;34.88;101972.00;5093465;28;20063;-64
2022/05/02 08:20:32;;;;;;;7.68;2.63;;;;;;;21.60;34.72;101963.53;5070387;28;20044;-64
2022/05/02 08:29:48;;;;;;;;;;;;;;;21.71;34.64;101966.22;5093310;28;20070;-60
2022/05/02 08:32:19;;;;;;;4.63;2.70;;;;;;;21.74;34.72;101959.81;5094199;28;20006;-62
2022/05/02 08:34:45;;;;;;;4.93;2.20;;;;;;;21.73;34.54;101956.31;5093116;28;20090;-59
2022/05/02 08:37:48;;;;;;;3.78;2.13;;;;;;;21.76;34.57;101963.16;5092148;28;20024;-60
2022/05/02 08:40:19;;;;;;;5.15;2.30;;;;;;;21.77;34.72;101961.38;5093183;28;20053;-61
2022/05/02 08:43:21;;;;;;;5.72;2.33;;;;;;;21.78;34.62;101960.41;5092406;28;20024;-60
2022/05/02 08:45:58;;;;;;;4.28;2.30;;;;;;;21.74;34.54;101962.47;5093116;28;20477;-60
2022/05/02 08:49:38;;;;;;;5.47;2.50;;;;;;;21.72;34.63;101964.41;5093240;28;20031;-60
2022/05/02 08:52:00;;;;;;;4.40;2.35;;;;;;;21.73;34.77;101966.94;5085558;28;20075;-60
2022/05/02 08:54:36;;;;;;;4.10;2.47;;;;;;;21.73;34.45;101952.84;5092922;28;20051;-59
2022/05/02 08:57:32;;;;;;;5.20;2.20;;;;;;;21.70;34.66;101961.88;5091854;28;20107;-60
2022/05/02 09:00:18;;;;;;;3.67;2.13;;;;;;;21.67;35.00;101958.63;5092793;28;20024;-59
2022/05/02 09:03:18;;;;;;;3.75;1.95;;;;;;;21.63;34.89;101957.16;5092909;28;20031;-60
2022/05/02 09:06:24;;;;;;;4.40;2.20;;;;;;;21.59;34.97;101959.22;5092769;28;20360;-60
2022/05/02 09:09:18;;;;;;;3.92;2.13;;;;;;;21.58;34.76;101948.72;5096841;28;20024;-60
2022/05/02 09:12:22;;;;;;;3.78;2.30;;;;;;;21.56;34.97;101948.84;5096282;28;20051;-59
2022/05/02 09:15:24;;;;;;;3.70;1.92;;;;;;;21.53;34.96;101946.44;5085904;28;20081;-60
2022/05/02 09:18:11;;;;;;;4.05;2.20;;;;;;;21.51;34.93;101949.22;5095935;28;20035;-60
2022/05/02 09:20:53;;;;;;;4.35;2.20;;;;;;;21.50;34.82;101949.31;5096799;28;20031;-60
2022/05/02 09:23:30;;;;;;;4.45;2.10;;;;;;;21.48;34.88;101949.44;5097021;28;20039;-60
2022/05/02 09:26:26;;;;;;;4.22;2.17;;;;;;;21.47;34.76;101957.50;5095707;28;20479;-60
2022/05/02 09:28:54;;;;;;;4.65;1.92;;;;;;;21.45;34.97;101949.66;5096333;28;20032;-60
2022/05/02 09:32:10;;;;;;;4.15;2.10;;;;;;;21.43;34.72;101956.03;5095975;28;20031;-60
2022/05/02 09:34:57;;;;;;;3.72;2.10;;;;;;;21.41;34.68;101929.63;5096675;28;20028;-60
2022/05/02 09:37:39;;;;;;;5.07;2.45;;;;;;;21.39;34.73;101944.81;5096532;28;20047;-60
2022/05/02 09:40:12;;;;;;;3.75;2.20;;;;;;;21.36;34.90;101943.28;5095601;28;20081;-60
2022/05/02 09:42:56;;;;;;;3.57;2.30;;;;;;;21.36;34.76;101942.41;5096519;28;20107;-60
2022/05/02 09:52:04;;;;;;;5.55;2.20;;;;;;;21.27;34.87;101928.06;5096174;28;20107;-60
2022/05/02 09:57:42;;;;;;;4.40;2.15;;;;;;;21.24;35.05;101927.44;5096287;28;20038;-60
2022/05/02 10:03:03;;;;;;;5.03;2.30;;;;;;;21.22;35.27;101924.94;5096002;28;20034;-60
2022/05/02 10:05:45;;;;;;;4.00;2.40;;;;;;;21.21;35.28;101923.25;5096166;28;20067;-60
2022/05/02 10:08:37;;;;;;;3.53;2.13;;;;;;;21.20;35.55;101927.72;5094926;28;20040;-60
2022/05/02 10:11:15;;;;;;;3.55;1.88;;;;;;;21.19;35.39;101919.88;5095618;28;20456;-60
2022/05/02 10:14:03;;;;;;;3.50;2.10;;;;;;;21.18;35.41;101920.84;5094997;28;20052;-59
2022/05/02 10:16:51;;;;;;;5.15;2.10;;;;;;;21.17;35.35;101922.66;5095704;28;20103;-60
2022/05/02 10:20:02;;;;;;;3.60;2.00;;;;;;;21.17;35.57;101919.13;5095446;28;20020;-60
2022/05/02 10:22:46;;;;;;;6.53;2.30;;;;;;;21.19;35.27;101922.53;5094956;28;20165;-59
2022/05/02 10:25:35;;;;;;;3.30;1.98;;;;;;;21.22;34.89;101921.44;5095196;28;20032;-62
2022/05/02 10:28:08;;;;;;;4.63;2.30;;;;;;;21.24;34.80;101904.47;5094428;28;20035;-59
2022/05/02 10:30:52;;;;;;;4.45;2.55;;;;;;;21.24;35.06;101920.38;5095267;28;20023;-61
2022/05/02 10:33:30;;;;;;;4.88;2.20;;;;;;;21.25;35.27;101906.13;5095504;28;20020;-61
2022/05/02 10:35:58;;;;;;;5.25;2.00;;;;;;;21.26;35.43;101909.63;5094383;28;20379;-61
2022/05/02 10:38:32;;;;;;;3.92;2.20;;;;;;;21.26;35.42;101901.69;5095437;28;20032;-60
2022/05/02 10:41:12;;;;;;;5.00;2.33;;;;;;;21.26;35.33;101901.69;5094882;28;20486;-61
2022/05/02 10:43:47;;;;;;;4.35;2.35;;;;;;;21.23;35.39;101897.47;5094577;28;20028;-63
2022/05/02 10:46:13;;;;;;;5.47;2.42;;;;;;;21.25;35.52;101900.81;5094916;28;20024;-62
2022/05/02 10:48:49;;;;;;;3.70;2.30;;;;;;;21.26;35.25;101902.53;5094706;28;20034;-69
2022/05/02 10:51:40;;;;;;;5.72;2.28;;;;;;;21.36;34.67;101892.91;5095096;28;20564;-62
2022/05/02 10:54:27;;;;;;;5.90;2.33;;;;;;;21.42;34.89;101888.06;5094880;28;20058;-60
2022/05/02 10:56:59;;;;;;;6.20;2.22;;;;;;;21.48;34.78;101885.81;5094560;28;20036;-62
2022/05/02 10:59:30;;;;;;;4.50;2.13;;;;;;;21.54;34.82;101889.78;5097147;28;20088;-61
2022/05/02 11:02:13;;;;;;;3.53;2.08;;;;;;;21.58;34.74;101882.41;5095305;28;20016;-63
2022/05/02 11:05:04;;;;;;;3.90;2.15;;;;;;;21.59;34.88;101890.25;5094039;28;20107;-63
2022/05/02 11:07:50;;;;;;;5.35;2.25;;;;;;;21.60;34.69;101875.19;5094927;28;20051;-62
2022/05/02 11:10:20;;;;;;;4.03;1.85;;;;;;;21.63;34.72;101872.28;5093093;28;20027;-64
2022/05/02 11:12:51;;;;;;;4.10;1.90;;;;;;;21.66;34.82;101878.16;5094925;28;20392;-63
2022/05/02 11:15:33;;;;;;;3.08;1.75;;;;;;;21.67;34.91;101884.34;5094809;28;20028;-63
2022/05/02 11:20:41;;;;;;;3.53;2.10;;;;;;;21.67;34.94;101879.88;5093861;28;20467;-63
2022/05/02 11:21:36;;;;;;;3.85;1.90;;;;;;;21.66;34.94;101870.22;5096441;28;20032;-62
2022/05/02 11:24:22;;;;;;;4.43;2.10;;;;;;;21.71;34.86;101865.41;5094571;28;20032;-62
2022/05/02 11:27:00;;;;;;;5.57;2.30;;;;;;;21.76;34.91;101870.31;5095185;28;20028;-64
2022/05/02 11:29:35;;;;;;;4.35;2.10;;;;;;;21.77;34.79;101863.22;5094522;28;20032;-64
2022/05/02 11:32:04;;;;;;;3.78;1.90;;;;;;;21.79;34.95;101858.63;5093977;28;20027;-63
2022/05/02 11:34:49;;;;;;;4.45;2.10;;;;;;;21.82;34.77;101861.03;5094614;28;20063;-64
2022/05/02 11:37:42;;;;;;;5.45;2.10;;;;;;;21.83;34.89;101858.25;5094900;28;20028;-60
2022/05/02 11:40:10;;;;;;;4.38;2.10;;;;;;;21.84;34.66;101849.34;5093483;28;20036;-60
2022/05/02 11:42:47;;;;;;;4.65;2.00;;;;;;;21.85;35.20;101851.00;5094503;28;20031;-63
2022/05/02 11:45:14;;;;;;;3.63;1.85;;;;;;;21.86;34.87;101851.88;5093135;28;20024;-60
2022/05/02 11:47:40;;;;;;;3.10;1.70;;;;;;;21.85;34.93;101856.31;5094241;28;20028;-60
2022/05/02 11:50:06;;;;;;;3.23;1.70;;;;;;;21.86;34.85;101855.34;5093762;28;20108;-61
2022/05/02 11:52:36;;;;;;;4.95;2.42;;;;;;;21.87;35.18;101854.38;5093263;28;20048;-62
2022/05/02 11:55:05;;;;;;;3.72;1.85;;;;;;;21.88;34.47;101847.25;5093803;28;20375;-61
2022/05/02 11:57:51;;;;;;;4.80;2.03;;;;;;;21.87;34.90;101850.88;5093782;28;20132;-62
2022/05/02 12:00:17;;;;;;;5.97;2.00;;;;;;;21.88;35.03;101844.59;5093121;28;20027;-64
2022/05/02 12:02:53;;;;;;;3.55;1.80;;;;;;;21.90;34.84;101853.28;5093941;28;20016;-62
2022/05/02 12:05:23;;;;;;;3.88;1.92;;;;;;;21.91;34.83;101842.53;5093859;28;20036;-68
2022/05/02 12:08:06;;;;;;;4.68;1.85;;;;;;;21.92;34.84;101846.88;5092890;28;20055;-65
2022/05/02 12:10:41;;;;;;;3.63;1.92;;;;;;;21.93;34.93;101853.03;5093783;28;20057;-63
2022/05/02 12:13:12;;;;;;;4.53;1.80;;;;;;;21.95;35.05;101843.13;5092437;28;20044;-65
2022/05/02 12:15:54;;;;;;;5.72;2.03;;;;;;;21.98;34.87;101837.56;5093569;28;20020;-68
2022/05/02 12:18:21;;;;;;;6.32;2.20;;;;;;;21.98;34.78;101840.22;5093732;28;20040;-64
2022/05/02 12:20:54;;;;;;;5.88;2.10;;;;;;;21.99;34.78;101841.91;5092830;28;20027;-67
2022/05/02 12:23:20;;;;;;;5.38;2.05;;;;;;;22.00;34.99;101838.31;5093613;28;20388;-65
2022/05/02 12:25:56;;;;;;;4.47;1.65;;;;;;;22.02;34.63;101841.66;5093443;28;20099;-66
2022/05/02 12:28:48;;;;;;;3.78;1.88;;;;;;;22.04;34.80;101836.22;5092945;28;20074;-60
2022/05/02 12:31:16;;;;;;;4.55;1.85;;;;;;;22.05;34.77;101844.06;5093597;28;20020;-61